createdAt,value
2023-02-08T00:03:18.277Z,138.93671
2023-02-08T00:08:19.738Z,140.80511
2023-02-08T00:13:21.510Z,140.17834
2023-02-08T00:18:23.044Z,138.93671
2023-02-08T00:23:24.543Z,140.17834
2023-02-08T00:28:26.383Z,138.93671
2023-02-08T00:33:27.830Z,143.35275
2023-02-08T00:38:29.293Z,137.10345
2023-02-08T00:43:30.962Z,137.71069
2023-02-08T00:48:32.550Z,133.53846
2023-02-08T00:53:34.051Z,128.43114
2023-02-08T00:58:35.569Z,128.98498
2023-02-08T01:03:37.064Z,127.33333
2023-02-08T01:08:38.805Z,128.43114
2023-02-08T01:13:40.630Z,128.98498
2023-02-08T01:18:42.160Z,123.59184
2023-02-08T01:23:43.644Z,122.03468
2023-02-08T01:28:45.196Z,119.49858
2023-02-08T01:33:46.653Z,120
2023-02-08T01:38:48.096Z,116.54902
2023-02-08T01:43:49.791Z,110.48649
2023-02-08T01:48:51.310Z,110.48649
2023-02-08T01:53:52.798Z,107.39523
2023-02-08T01:58:54.321Z,101.94872
2023-02-08T02:03:55.798Z,104.83551
2023-02-08T02:08:57.301Z,114.63712
2023-02-08T02:13:59.002Z,123.59184
2023-02-08T02:19:00.573Z,127.33333
2023-02-08T02:24:02.050Z,131.23404
2023-02-08T02:29:03.735Z,128.43114
2023-02-08T02:34:05.300Z,130.66667
2023-02-08T02:39:06.792Z,123.06977
2023-02-08T02:44:08.549Z,123.06977
2023-02-08T02:49:10.002Z,120
2023-02-08T02:54:11.468Z,115.58774
2023-02-08T02:59:12.966Z,111.3913
2023-02-08T03:04:14.508Z,114.16575
2023-02-08T03:09:15.987Z,110.48649
2023-02-08T03:14:18.192Z,112.76712
2023-02-08T03:19:19.670Z,111.84741
2023-02-08T03:24:21.366Z,110.93767
2023-02-08T03:29:23.288Z,110.48649
2023-02-08T03:34:24.792Z,111.84741
2023-02-08T03:39:26.377Z,112.76712
2023-02-08T03:44:28.248Z,110.03774
2023-02-08T03:49:29.692Z,106.96296
2023-02-08T03:54:31.163Z,107.39523
2023-02-08T03:59:32.717Z,106.96296
2023-02-08T04:04:34.275Z,110.48649
2023-02-08T04:09:38.454Z,110.93767
2023-02-08T04:14:40.775Z,107.39523
2023-02-08T04:19:42.291Z,105.25654
2023-02-08T04:24:43.810Z,105.25654
2023-02-08T04:29:45.508Z,106.10526
2023-02-08T04:34:47.140Z,109.5914
2023-02-08T04:39:48.660Z,106.10526
2023-02-08T04:44:50.436Z,104
2023-02-08T04:49:51.908Z,101.54476
2023-02-08T04:54:53.382Z,101.14286
2023-02-08T04:59:55.090Z,99.16373
2023-02-08T05:04:56.748Z,104.41667
2023-02-08T05:09:58.317Z,109.14745
2023-02-08T05:15:00.084Z,106.10526
2023-02-08T05:20:01.589Z,111.3913
2023-02-08T05:25:03.127Z,103.58549
2023-02-08T05:30:04.979Z,103.17313
2023-02-08T05:35:06.483Z,101.94872
2023-02-08T05:40:08.003Z,101.14286
2023-02-08T05:45:10.374Z,106.53298
2023-02-08T05:50:12.129Z,101.54476
2023-02-08T05:55:13.677Z,109.14745
2023-02-08T06:00:15.403Z,108.26667
2023-02-08T06:05:17.208Z,115.11111
2023-02-08T06:10:18.724Z,109.5914
2023-02-08T06:15:20.632Z,113.69697
2023-02-08T06:20:22.196Z,112.76712
2023-02-08T06:25:23.625Z,110.48649
2023-02-08T06:30:25.093Z,114.63712
2023-02-08T06:35:26.702Z,124.64516
2023-02-08T06:40:28.320Z,134.71207
2023-02-08T06:45:30.760Z,130.66667
2023-02-08T06:50:32.398Z,123.59184
2023-02-08T06:55:33.975Z,127.33333
2023-02-08T07:00:35.490Z,136.5
2023-02-08T07:05:37.201Z,129.54217
2023-02-08T07:10:38.913Z,123.59184
2023-02-08T07:15:40.882Z,126.24852
2023-02-08T07:20:42.503Z,132.3792
2023-02-08T07:25:43.983Z,125.17647
2023-02-08T07:30:45.720Z,105.67979
2023-02-08T07:35:47.284Z,99.16373
2023-02-08T07:40:48.901Z,101.54476
2023-02-08T07:45:50.717Z,98.38596
2023-02-08T07:50:52.286Z,99.55556
2023-02-08T07:55:53.762Z,100.743
2023-02-08T08:00:55.324Z,101.14286
2023-02-08T08:05:56.803Z,105.25654
2023-02-08T08:10:58.234Z,104.83551
2023-02-08T08:16:00.414Z,103.17313
2023-02-08T08:21:01.908Z,103.17313
2023-02-08T08:26:03.452Z,98.77387
2023-02-08T08:31:05.080Z,94.98039
2023-02-08T08:36:06.738Z,94.2439
2023-02-08T08:41:08.222Z,93.51456
2023-02-08T08:46:10.190Z,94.2439
2023-02-08T08:51:12.072Z,96.47525
2023-02-08T08:56:13.644Z,95.72414
2023-02-08T09:01:15.577Z,94.98039
2023-02-08T09:06:17.132Z,94.61125
2023-02-08T09:11:18.851Z,98.38596
2023-02-08T09:16:20.784Z,102.35476
2023-02-08T09:21:22.282Z,105.25654
2023-02-08T09:26:23.921Z,115.11111
2023-02-08T09:31:25.647Z,113.69697
2023-02-08T09:36:27.195Z,107.39523
2023-02-08T09:41:28.665Z,113.23077
2023-02-08T09:46:30.379Z,120.5043
2023-02-08T09:51:32.033Z,117.03371
2023-02-08T09:56:33.785Z,118.50425
2023-02-08T10:01:35.241Z,128.43114
2023-02-08T10:06:36.756Z,124.64516
2023-02-08T10:11:38.309Z,135.30435
2023-02-08T10:16:40.085Z,130.66667
2023-02-08T10:21:41.605Z,143.35275
2023-02-08T10:26:43.369Z,146.63158
2023-02-08T10:31:45.372Z,138.93671
2023-02-08T10:36:46.888Z,150.02007
2023-02-08T10:41:48.397Z,164.78853
2023-02-08T10:46:50.030Z,152.10811
2023-02-08T10:51:51.541Z,155.68385
2023-02-08T10:56:53.106Z,191.38956
2023-02-08T11:01:54.932Z,144
2023-02-08T11:06:56.458Z,163.21708
2023-02-08T11:11:58.071Z,180.92308
2023-02-08T11:16:59.721Z,170.47059
2023-02-08T11:22:01.196Z,172.99628
2023-02-08T11:27:02.726Z,199.60166
2023-02-08T11:32:04.304Z,191.38956
2023-02-08T11:37:05.978Z,194.4065
2023-02-08T11:42:07.564Z,222.73303
2023-02-08T11:47:09.306Z,216.56637
2023-02-08T11:52:10.778Z,226.56881
2023-02-08T11:57:12.305Z,214.17544
2023-02-08T12:02:14.073Z,212.99563
2023-02-08T12:07:15.518Z,245.96078
2023-02-08T12:12:17.244Z,268.21053
2023-02-08T12:17:18.937Z,250.46766
2023-02-08T12:22:20.378Z,220.23318
2023-02-08T12:27:21.801Z,219
2023-02-08T12:32:23.606Z,191.38956
2023-02-08T12:37:25.053Z,225.27854
2023-02-08T12:42:26.648Z,224
2023-02-08T12:47:28.570Z,224
2023-02-08T12:52:30.055Z,250.46766
2023-02-08T12:57:31.960Z,231.85047
2023-02-08T13:02:33.803Z,237.33333
2023-02-08T13:07:35.341Z,252
2023-02-08T13:12:36.786Z,248.9505
2023-02-08T13:17:38.500Z,234.56604
2023-02-08T13:22:40.039Z,225.27854
2023-02-08T13:27:41.481Z,219
2023-02-08T13:32:44.303Z,209.51724
2023-02-08T13:37:45.859Z,229.18519
2023-02-08T13:42:47.332Z,214.17544
2023-02-08T13:47:49.376Z,215.36564
2023-02-08T13:52:50.883Z,208.37768
2023-02-08T13:57:52.337Z,225.27854
2023-02-08T14:02:54.028Z,216.56637
2023-02-08T14:07:55.601Z,211.82609
2023-02-08T14:12:57.206Z,241.58454
2023-02-08T14:17:59.347Z,203.91561
2023-02-08T14:23:00.832Z,184.625
2023-02-08T14:28:02.487Z,168.81752
2023-02-08T14:33:04.267Z,176.45283
2023-02-08T14:38:05.825Z,164.78853
2023-02-08T14:43:07.447Z,173.85075
2023-02-08T14:48:09.685Z,171.30627
2023-02-08T14:53:11.152Z,164
2023-02-08T14:58:12.632Z,171.30627
2023-02-08T15:03:14.158Z,157.14879
2023-02-08T15:08:15.730Z,160.14035
2023-02-08T15:13:17.195Z,150.02007
2023-02-08T15:18:19.266Z,162.43972
2023-02-08T15:23:20.758Z,180.92308
2023-02-08T15:28:22.427Z,210.66667
2023-02-08T15:33:24.130Z,211.82609
2023-02-08T15:38:25.778Z,203.91561
2023-02-08T15:43:27.240Z,215.36564
2023-02-08T15:48:29.493Z,196.45902
2023-02-08T15:53:31.049Z,179.1145
2023-02-08T15:58:32.509Z,168
2023-02-08T16:03:34.078Z,161.66784
2023-02-08T16:08:35.741Z,163.21708
2023-02-08T16:13:37.467Z,159.38462
2023-02-08T16:18:39.634Z,157.14879
2023-02-08T16:23:41.179Z,144
2023-02-08T16:28:42.757Z,129.54217
2023-02-08T16:33:44.448Z,130.10272
2023-02-08T16:38:46.040Z,125.71091
2023-02-08T16:43:47.667Z,125.17647
2023-02-08T16:48:49.804Z,103.17313
2023-02-08T16:53:51.604Z,94.61125
2023-02-08T16:58:53.226Z,92.07692
2023-02-08T17:03:55.078Z,92.79227
2023-02-08T17:08:56.920Z,92.43373
2023-02-08T17:13:58.393Z,98.77387
2023-02-08T17:19:00.329Z,98.77387
2023-02-08T17:24:01.803Z,99.16373
2023-02-08T17:29:03.265Z,92.79227
2023-02-08T17:34:04.848Z,89.62648
2023-02-08T17:39:06.313Z,101.54476
2023-02-08T17:44:07.994Z,97.61596
2023-02-08T17:49:09.743Z,117.03371
2023-02-08T17:54:11.175Z,139.55556
2023-02-08T17:59:12.729Z,132.95706
2023-02-08T18:04:14.358Z,119
2023-02-08T18:09:15.805Z,122.55072
2023-02-08T18:14:17.257Z,117.52113
2023-02-08T18:19:19.025Z,125.71091
2023-02-08T18:24:20.709Z,140.17834
2023-02-08T18:29:22.394Z,150.71141
2023-02-08T18:34:23.954Z,151.40741
2023-02-08T18:39:25.444Z,147.30033
2023-02-08T18:44:27.149Z,147.97351
2023-02-08T18:49:28.881Z,125.17647
2023-02-08T18:54:30.521Z,92.43373
2023-02-08T18:59:32.015Z,88.94118
2023-02-08T19:04:33.512Z,87.92523
2023-02-08T19:09:35.055Z,112.76712
2023-02-08T19:14:36.563Z,144.65147
2023-02-08T19:19:38.301Z,160.14035
2023-02-08T19:24:39.775Z,212.99563
2023-02-08T19:29:41.633Z,238.73684
2023-02-08T19:34:43.252Z,189.41833
2023-02-08T19:39:44.924Z,164.78853
2023-02-08T19:44:46.692Z,153.52381
2023-02-08T19:49:48.411Z,137.71069
2023-02-08T19:54:50.035Z,134.12346
2023-02-08T19:59:51.627Z,129.54217
2023-02-08T20:04:53.413Z,127.8806
2023-02-08T20:09:54.872Z,125.71091
2023-02-08T20:14:56.506Z,125.17647
2023-02-08T20:19:58.539Z,130.66667
2023-02-08T20:25:00.027Z,134.71207
2023-02-08T20:30:01.466Z,132.95706
2023-02-08T20:35:03.145Z,134.71207
2023-02-08T20:40:04.640Z,132.3792
2023-02-08T20:45:06.236Z,138.93671
2023-02-08T20:50:18.300Z,151.40741
2023-02-08T20:55:20.894Z,148.65116
2023-02-08T21:00:24.176Z,155.68385
2023-02-08T21:05:27.583Z,160.14035
2023-02-08T21:10:29.220Z,162.43972
2023-02-08T21:15:30.847Z,156.41379
2023-02-08T21:20:32.819Z,154.9589
2023-02-08T21:25:34.434Z,152.10811
2023-02-08T21:30:36.129Z,152.10811
2023-02-08T21:35:37.726Z,148.65116
2023-02-08T21:40:39.331Z,142.70968
2023-02-08T21:45:42.713Z,135.30435
2023-02-08T21:50:44.741Z,134.71207
2023-02-08T21:55:46.546Z,123.59184
2023-02-08T22:00:48.003Z,126.24852
2023-02-08T22:05:49.705Z,125.71091
2023-02-08T22:10:58.027Z,124.64516
2023-02-08T22:16:00.357Z,124.11696
2023-02-08T22:21:02.285Z,121.52161
2023-02-08T22:26:03.776Z,124.64516
2023-02-08T22:31:05.356Z,122.03468
2023-02-08T22:36:07.192Z,119.49858
2023-02-08T22:41:08.973Z,122.03468
2023-02-08T22:46:10.531Z,120
2023-02-08T22:51:12.329Z,119.49858
2023-02-08T22:56:13.830Z,119
2023-02-08T23:01:15.355Z,117.52113
2023-02-08T23:06:17.134Z,114.63712
2023-02-08T23:11:18.868Z,115.58774
2023-02-08T23:16:20.373Z,121.01149
2023-02-08T23:21:22.177Z,119.49858
2023-02-08T23:26:23.664Z,118.50425
2023-02-08T23:31:25.478Z,117.03371
2023-02-08T23:36:27.369Z,115.11111
2023-02-08T23:41:28.905Z,113.23077
2023-02-08T23:46:30.362Z,107.82979
2023-02-08T23:51:32.055Z,106.53298
2023-02-08T23:56:33.526Z,105.67979
